sensor_id;sensor_type;location;lat;lon;timestamp;pressure;altitude;pressure_sealevel;temperature;humidity
51297;BME280;37380;45.186;9.792;2022-09-23T00:02:09;101556.03;;;12.68;99.43
51297;BME280;37380;45.186;9.792;2022-09-23T00:04:36;101578.66;;;12.87;99.53
51297;BME280;37380;45.186;9.792;2022-09-23T00:07:04;101614.63;;;13.12;99.43
51297;BME280;37380;45.186;9.792;2022-09-23T00:09:31;101599.56;;;13.08;99.71
51297;BME280;37380;45.186;9.792;2022-09-23T00:11:58;101526.69;;;12.54;100.00
51297;BME280;37380;45.186;9.792;2022-09-23T00:14:32;101566.38;;;12.86;99.51
51297;BME280;37380;45.186;9.792;2022-09-23T00:17:33;101533.13;;;12.62;99.75
51297;BME280;37380;45.186;9.792;2022-09-23T00:20:34;101619.69;;;13.07;100.00
51297;BME280;37380;45.186;9.792;2022-09-23T00:23:28;101574.78;;;12.77;100.00
51297;BME280;37380;45.186;9.792;2022-09-23T00:25:56;101615.97;;;13.02;100.00
51297;BME280;37380;45.186;9.792;2022-09-23T00:28:24;101554.16;;;12.64;100.00
51297;BME280;37380;45.186;9.792;2022-09-23T00:30:51;101569.28;;;12.71;100.00
51297;BME280;37380;45.186;9.792;2022-09-23T00:33:18;101476.50;;;12.22;100.00
51297;BME280;37380;45.186;9.792;2022-09-23T00:35:45;101563.78;;;12.65;100.00
51297;BME280;37380;45.186;9.792;2022-09-23T00:38:13;101519.66;;;12.32;100.00
51297;BME280;37380;45.186;9.792;2022-09-23T00:40:44;101610.06;;;12.85;100.00
51297;BME280;37380;45.186;9.792;2022-09-23T00:43:12;101610.00;;;12.84;100.00
51297;BME280;37380;45.186;9.792;2022-09-23T00:45:48;101503.56;;;12.23;100.00
51297;BME280;37380;45.186;9.792;2022-09-23T00:48:44;101625.34;;;12.96;100.00
51297;BME280;37380;45.186;9.792;2022-09-23T00:51:15;101541.13;;;12.44;100.00
51297;BME280;37380;45.186;9.792;2022-09-23T00:53:47;101616.94;;;13.04;100.00
51297;BME280;37380;45.186;9.792;2022-09-23T00:56:17;101631.00;;;12.84;100.00
51297;BME280;37380;45.186;9.792;2022-09-23T00:58:52;101512.03;;;12.16;100.00
51297;BME280;37380;45.186;9.792;2022-09-23T01:01:47;101600.09;;;12.54;100.00
51297;BME280;37380;45.186;9.792;2022-09-23T01:04:15;101547.94;;;12.39;100.00
51297;BME280;37380;45.186;9.792;2022-09-23T01:06:42;101550.47;;;12.38;100.00
51297;BME280;37380;45.186;9.792;2022-09-23T01:09:10;101580.00;;;12.55;100.00
51297;BME280;37380;45.186;9.792;2022-09-23T01:18:39;101608.88;;;12.77;100.00
51297;BME280;37380;45.186;9.792;2022-09-23T01:30:16;101605.81;;;12.66;100.00
51297;BME280;37380;45.186;9.792;2022-09-23T01:32:58;101606.22;;;12.55;100.00
51297;BME280;37380;45.186;9.792;2022-09-23T01:35:44;101613.09;;;12.53;100.00
51297;BME280;37380;45.186;9.792;2022-09-23T01:38:22;101496.00;;;11.87;100.00
51297;BME280;37380;45.186;9.792;2022-09-23T01:45:58;101603.84;;;12.61;100.00
51297;BME280;37380;45.186;9.792;2022-09-23T01:48:36;101541.41;;;12.09;100.00
51297;BME280;37380;45.186;9.792;2022-09-23T01:51:11;101547.09;;;11.98;100.00
51297;BME280;37380;45.186;9.792;2022-09-23T01:53:48;101610.81;;;12.39;100.00
51297;BME280;37380;45.186;9.792;2022-09-23T01:56:36;101534.28;;;11.66;100.00
51297;BME280;37380;45.186;9.792;2022-09-23T01:59:24;101556.69;;;11.78;100.00
51297;BME280;37380;45.186;9.792;2022-09-23T02:02:27;101541.16;;;11.83;100.00
51297;BME280;37380;45.186;9.792;2022-09-23T02:05:06;101599.38;;;12.16;100.00
51297;BME280;37380;45.186;9.792;2022-09-23T02:07:37;101598.69;;;12.01;100.00
51297;BME280;37380;45.186;9.792;2022-09-23T02:10:14;101522.06;;;11.45;100.00
51297;BME280;37380;45.186;9.792;2022-09-23T02:12:52;101540.88;;;11.37;100.00
51297;BME280;37380;45.186;9.792;2022-09-23T02:15:56;101615.88;;;11.55;100.00
51297;BME280;37380;45.186;9.792;2022-09-23T02:18:56;101609.78;;;11.37;100.00
51297;BME280;37380;45.186;9.792;2022-09-23T02:21:31;101601.41;;;11.44;100.00
51297;BME280;37380;45.186;9.792;2022-09-23T02:24:05;101542.06;;;11.24;100.00
51297;BME280;37380;45.186;9.792;2022-09-23T02:27:30;101554.69;;;11.34;100.00
51297;BME280;37380;45.186;9.792;2022-09-23T02:33:09;101571.03;;;11.48;100.00
51297;BME280;37380;45.186;9.792;2022-09-23T02:36:14;101585.63;;;11.23;100.00
51297;BME280;37380;45.186;9.792;2022-09-23T02:38:52;101503.56;;;10.82;100.00
51297;BME280;37380;45.186;9.792;2022-09-23T02:41:45;101592.72;;;11.84;100.00
51297;BME280;37380;45.186;9.792;2022-09-23T02:44:17;101599.16;;;12.12;100.00
51297;BME280;37380;45.186;9.792;2022-09-23T02:46:45;101501.09;;;11.65;100.00
51297;BME280;37380;45.186;9.792;2022-09-23T02:51:43;101527.94;;;11.80;100.00
51297;BME280;37380;45.186;9.792;2022-09-23T02:54:23;101523.56;;;11.60;100.00
51297;BME280;37380;45.186;9.792;2022-09-23T02:56:52;101497.88;;;11.51;100.00
51297;BME280;37380;45.186;9.792;2022-09-23T02:59:26;101467.81;;;11.41;100.00
51297;BME280;37380;45.186;9.792;2022-09-23T03:05:34;101584.16;;;11.69;100.00
51297;BME280;37380;45.186;9.792;2022-09-23T03:08:22;101567.41;;;11.64;100.00
51297;BME280;37380;45.186;9.792;2022-09-23T03:10:57;101584.00;;;11.64;100.00
51297;BME280;37380;45.186;9.792;2022-09-23T03:16:43;101575.09;;;11.41;100.00
51297;BME280;37380;45.186;9.792;2022-09-23T03:22:22;101579.97;;;11.14;100.00
51297;BME280;37380;45.186;9.792;2022-09-23T03:24:53;101526.38;;;10.86;100.00
51297;BME280;37380;45.186;9.792;2022-09-23T03:27:26;101582.78;;;11.19;100.00
51297;BME280;37380;45.186;9.792;2022-09-23T03:29:56;101555.59;;;10.78;100.00
51297;BME280;37380;45.186;9.792;2022-09-23T03:32:25;101563.69;;;10.82;100.00
51297;BME280;37380;45.186;9.792;2022-09-23T03:35:02;101567.78;;;10.77;100.00
51297;BME280;37380;45.186;9.792;2022-09-23T03:38:11;101567.34;;;10.68;100.00
51297;BME280;37380;45.186;9.792;2022-09-23T03:41:09;101557.13;;;10.55;100.00
51297;BME280;37380;45.186;9.792;2022-09-23T03:43:37;101564.66;;;10.67;100.00
51297;BME280;37380;45.186;9.792;2022-09-23T03:46:06;101559.47;;;10.86;100.00
51297;BME280;37380;45.186;9.792;2022-09-23T03:48:34;101538.88;;;10.74;100.00
51297;BME280;37380;45.186;9.792;2022-09-23T03:51:18;101566.91;;;10.96;100.00
51297;BME280;37380;45.186;9.792;2022-09-23T03:53:46;101482.97;;;10.53;100.00
51297;BME280;37380;45.186;9.792;2022-09-23T03:56:13;101558.91;;;10.74;100.00
51297;BME280;37380;45.186;9.792;2022-09-23T03:58:47;101522.63;;;10.62;100.00
51297;BME280;37380;45.186;9.792;2022-09-23T04:01:42;101551.47;;;11.01;100.00
51297;BME280;37380;45.186;9.792;2022-09-23T04:04:09;101553.41;;;10.87;100.00
51297;BME280;37380;45.186;9.792;2022-09-23T04:06:36;101532.50;;;10.87;100.00
51297;BME280;37380;45.186;9.792;2022-09-23T04:09:03;101463.78;;;10.52;100.00
51297;BME280;37380;45.186;9.792;2022-09-23T04:11:30;101554.56;;;11.12;100.00
51297;BME280;37380;45.186;9.792;2022-09-23T04:14:03;101532.97;;;11.16;100.00
51297;BME280;37380;45.186;9.792;2022-09-23T04:17:04;101524.13;;;10.94;100.00
51297;BME280;37380;45.186;9.792;2022-09-23T04:19:58;101544.16;;;10.76;100.00
51297;BME280;37380;45.186;9.792;2022-09-23T04:22:25;101547.03;;;10.62;100.00
51297;BME280;37380;45.186;9.792;2022-09-23T04:24:52;101532.06;;;10.78;100.00
51297;BME280;37380;45.186;9.792;2022-09-23T04:27:19;101526.31;;;10.48;100.00
51297;BME280;37380;45.186;9.792;2022-09-23T04:29:46;101528.97;;;10.49;100.00
51297;BME280;37380;45.186;9.792;2022-09-23T04:32:13;101513.84;;;10.42;100.00
51297;BME280;37380;45.186;9.792;2022-09-23T04:34:39;101564.66;;;10.67;100.00
51297;BME280;37380;45.186;9.792;2022-09-23T04:37:06;101560.63;;;10.55;100.00
51297;BME280;37380;45.186;9.792;2022-09-23T04:39:33;101496.28;;;10.22;100.00
51297;BME280;37380;45.186;9.792;2022-09-23T04:42:00;101500.72;;;10.06;100.00
51297;BME280;37380;45.186;9.792;2022-09-23T04:44:34;101570.34;;;10.24;100.00
51297;BME280;37380;45.186;9.792;2022-09-23T04:47:35;101555.34;;;10.02;100.00
51297;BME280;37380;45.186;9.792;2022-09-23T04:50:32;101568.03;;;10.12;100.00
51297;BME280;37380;45.186;9.792;2022-09-23T04:52:59;101561.75;;;10.08;100.00
51297;BME280;37380;45.186;9.792;2022-09-23T04:55:27;101534.13;;;9.78;100.00
51297;BME280;37380;45.186;9.792;2022-09-23T04:58:01;101545.31;;;9.93;100.00
51297;BME280;37380;45.186;9.792;2022-09-23T05:01:21;101596.72;;;9.94;100.00
51297;BME280;37380;45.186;9.792;2022-09-23T05:04:22;101593.63;;;9.85;100.00
51297;BME280;37380;45.186;9.792;2022-09-23T05:07:22;101566.91;;;9.72;100.00
51297;BME280;37380;45.186;9.792;2022-09-23T05:10:17;101589.03;;;9.97;100.00
51297;BME280;37380;45.186;9.792;2022-09-23T05:12:43;101591.03;;;10.19;100.00
51297;BME280;37380;45.186;9.792;2022-09-23T05:15:10;101591.44;;;10.27;100.00
51297;BME280;37380;45.186;9.792;2022-09-23T05:17:42;101553.44;;;10.15;100.00
51297;BME280;37380;45.186;9.792;2022-09-23T05:20:09;101547.22;;;10.30;100.00
51297;BME280;37380;45.186;9.792;2022-09-23T05:22:36;101488.72;;;10.10;100.00
51297;BME280;37380;45.186;9.792;2022-09-23T05:25:10;101593.19;;;10.62;100.00
51297;BME280;37380;45.186;9.792;2022-09-23T05:28:04;101574.81;;;10.60;100.00
51297;BME280;37380;45.186;9.792;2022-09-23T05:30:32;101503.75;;;10.32;100.00
51297;BME280;37380;45.186;9.792;2022-09-23T05:32:59;101525.44;;;10.67;100.00
51297;BME280;37380;45.186;9.792;2022-09-23T05:35:27;101438.41;;;10.30;100.00
51297;BME280;37380;45.186;9.792;2022-09-23T05:37:53;101594.88;;;11.17;100.00
51297;BME280;37380;45.186;9.792;2022-09-23T05:40:20;101574.75;;;11.14;100.00
51297;BME280;37380;45.186;9.792;2022-09-23T05:42:47;101530.69;;;10.67;100.00
51297;BME280;37380;45.186;9.792;2022-09-23T05:45:15;101581.22;;;10.85;100.00
51297;BME280;37380;45.186;9.792;2022-09-23T05:47:43;101555.31;;;10.72;100.00
51297;BME280;37380;45.186;9.792;2022-09-23T05:50:16;101576.91;;;10.68;100.00
51297;BME280;37380;45.186;9.792;2022-09-23T05:53:18;101499.38;;;10.14;100.00
51297;BME280;37380;45.186;9.792;2022-09-23T05:56:12;101506.34;;;10.14;100.00
51297;BME280;37380;45.186;9.792;2022-09-23T05:58:51;101580.34;;;10.67;100.00
51297;BME280;37380;45.186;9.792;2022-09-23T06:01:44;101580.47;;;10.70;100.00
51297;BME280;37380;45.186;9.792;2022-09-23T06:04:12;101442.53;;;9.91;100.00
51297;BME280;37380;45.186;9.792;2022-09-23T06:06:46;101539.66;;;10.54;100.00
51297;BME280;37380;45.186;9.792;2022-09-23T06:09:42;101509.59;;;10.81;100.00
51297;BME280;37380;45.186;9.792;2022-09-23T06:12:09;101572.50;;;11.41;100.00
51297;BME280;37380;45.186;9.792;2022-09-23T06:14:36;101456.50;;;10.82;100.00
51297;BME280;37380;45.186;9.792;2022-09-23T06:17:04;101550.53;;;11.97;100.00
51297;BME280;37380;45.186;9.792;2022-09-23T06:19:31;101585.97;;;12.73;100.00
51297;BME280;37380;45.186;9.792;2022-09-23T06:21:58;101544.00;;;12.73;100.00
51297;BME280;37380;45.186;9.792;2022-09-23T06:24:25;101584.41;;;13.23;100.00
51297;BME280;37380;45.186;9.792;2022-09-23T06:26:57;101549.13;;;13.15;100.00
51297;BME280;37380;45.186;9.792;2022-09-23T06:29:24;101542.50;;;13.47;100.00
51297;BME280;37380;45.186;9.792;2022-09-23T06:31:57;101578.16;;;13.66;100.00
51297;BME280;37380;45.186;9.792;2022-09-23T06:34:51;101558.53;;;14.86;99.62
51297;BME280;37380;45.186;9.792;2022-09-23T06:37:18;101514.47;;;15.39;95.42
51297;BME280;37380;45.186;9.792;2022-09-23T06:39:46;101507.00;;;15.23;93.84
51297;BME280;37380;45.186;9.792;2022-09-23T06:42:14;101577.44;;;15.93;92.62
51297;BME280;37380;45.186;9.792;2022-09-23T06:44:48;101470.88;;;15.50;93.46
51297;BME280;37380;45.186;9.792;2022-09-23T06:47:43;101575.38;;;15.81;94.27
51297;BME280;37380;45.186;9.792;2022-09-23T06:50:10;101409.09;;;16.07;89.54
51297;BME280;37380;45.186;9.792;2022-09-23T06:52:38;101578.56;;;17.10;89.50
51297;BME280;37380;45.186;9.792;2022-09-23T06:55:05;101457.69;;;15.82;91.70
51297;BME280;37380;45.186;9.792;2022-09-23T06:57:39;101476.56;;;15.66;92.51
51297;BME280;37380;45.186;9.792;2022-09-23T07:00:40;101567.56;;;16.18;95.46
51297;BME280;37380;45.186;9.792;2022-09-23T07:03:42;101511.47;;;15.90;92.94
51297;BME280;37380;45.186;9.792;2022-09-23T07:06:43;101555.03;;;16.45;94.48
51297;BME280;37380;45.186;9.792;2022-09-23T07:09:37;101476.94;;;16.52;89.83
51297;BME280;37380;45.186;9.792;2022-09-23T07:12:04;101450.91;;;15.92;91.33
51297;BME280;37380;45.186;9.792;2022-09-23T07:14:32;101513.97;;;16.57;89.89
51297;BME280;37380;45.186;9.792;2022-09-23T07:16:58;101481.59;;;17.03;86.48
51297;BME280;37380;45.186;9.792;2022-09-23T07:19:25;101504.53;;;16.66;89.08
51297;BME280;37380;45.186;9.792;2022-09-23T07:21:52;101527.25;;;16.97;90.25
51297;BME280;37380;45.186;9.792;2022-09-23T07:24:26;101524.19;;;17.20;87.29
51297;BME280;37380;45.186;9.792;2022-09-23T07:27:27;101509.63;;;17.84;84.04
51297;BME280;37380;45.186;9.792;2022-09-23T07:30:21;101584.41;;;18.81;79.46
51297;BME280;37380;45.186;9.792;2022-09-23T07:32:57;101550.91;;;18.29;80.17
51297;BME280;37380;45.186;9.792;2022-09-23T07:36:17;101571.66;;;18.05;80.91
51297;BME280;37380;45.186;9.792;2022-09-23T07:39:13;101578.53;;;18.45;81.08
51297;BME280;37380;45.186;9.792;2022-09-23T07:41:40;101492.09;;;17.90;82.00
51297;BME280;37380;45.186;9.792;2022-09-23T07:44:10;101551.59;;;17.69;84.86
51297;BME280;37380;45.186;9.792;2022-09-23T07:46:37;101556.63;;;18.02;83.64
51297;BME280;37380;45.186;9.792;2022-09-23T07:49:04;101554.56;;;17.40;87.65
51297;BME280;37380;45.186;9.792;2022-09-23T07:51:36;101580.09;;;18.34;82.77
51297;BME280;37380;45.186;9.792;2022-09-23T07:54:06;101586.00;;;18.72;81.86
51297;BME280;37380;45.186;9.792;2022-09-23T07:56:36;101556.19;;;18.28;82.49
51297;BME280;37380;45.186;9.792;2022-09-23T07:59:12;101569.06;;;18.08;85.36
51297;BME280;37380;45.186;9.792;2022-09-23T08:02:13;101551.75;;;18.82;80.33
51297;BME280;37380;45.186;9.792;2022-09-23T08:05:07;101550.13;;;18.90;79.85
51297;BME280;37380;45.186;9.792;2022-09-23T08:07:41;101552.69;;;19.52;78.57
51297;BME280;37380;45.186;9.792;2022-09-23T08:10:42;101555.84;;;19.22;75.72
51297;BME280;37380;45.186;9.792;2022-09-23T08:13:36;101563.94;;;19.34;75.39
51297;BME280;37380;45.186;9.792;2022-09-23T08:16:04;101551.09;;;19.65;76.60
51297;BME280;37380;45.186;9.792;2022-09-23T08:18:32;101582.25;;;19.86;78.33
51297;BME280;37380;45.186;9.792;2022-09-23T08:20:58;101540.84;;;20.03;73.84
51297;BME280;37380;45.186;9.792;2022-09-23T08:23:25;101497.38;;;19.86;72.55
51297;BME280;37380;45.186;9.792;2022-09-23T08:25:57;101563.59;;;19.77;74.54
51297;BME280;37380;45.186;9.792;2022-09-23T08:28:26;101518.81;;;20.10;68.63
51297;BME280;37380;45.186;9.792;2022-09-23T08:30:53;101476.59;;;20.43;67.59
51297;BME280;37380;45.186;9.792;2022-09-23T08:33:21;101559.66;;;20.28;66.36
51297;BME280;37380;45.186;9.792;2022-09-23T08:35:50;101548.53;;;19.73;70.09
51297;BME280;37380;45.186;9.792;2022-09-23T08:38:23;101592.00;;;19.87;69.43
51297;BME280;37380;45.186;9.792;2022-09-23T08:44:17;101585.13;;;20.07;68.02
51297;BME280;37380;45.186;9.792;2022-09-23T08:46:53;101593.13;;;20.10;69.66
51297;BME280;37380;45.186;9.792;2022-09-23T08:49:29;101591.66;;;20.46;65.78
51297;BME280;37380;45.186;9.792;2022-09-23T08:51:58;101579.53;;;19.78;69.10
51297;BME280;37380;45.186;9.792;2022-09-23T08:54:32;101500.66;;;18.86;72.18
51297;BME280;37380;45.186;9.792;2022-09-23T08:57:01;101454.50;;;19.41;70.60
51297;BME280;37380;45.186;9.792;2022-09-23T08:59:42;101543.91;;;20.51;66.26
51297;BME280;37380;45.186;9.792;2022-09-23T09:02:36;101522.28;;;20.02;63.71
51297;BME280;37380;45.186;9.792;2022-09-23T09:05:07;101584.53;;;20.44;69.38
51297;BME280;37380;45.186;9.792;2022-09-23T09:07:42;101521.19;;;20.93;65.78
51297;BME280;37380;45.186;9.792;2022-09-23T09:10:44;101536.50;;;21.54;62.75
51297;BME280;37380;45.186;9.792;2022-09-23T09:13:54;101561.22;;;21.34;60.61
51297;BME280;37380;45.186;9.792;2022-09-23T09:16:45;101561.41;;;22.02;58.57
51297;BME280;37380;45.186;9.792;2022-09-23T09:22:19;101439.72;;;20.92;57.13
51297;BME280;37380;45.186;9.792;2022-09-23T09:28:00;101452.78;;;20.53;59.88
51297;BME280;37380;45.186;9.792;2022-09-23T09:30:27;101504.38;;;21.03;57.47
51297;BME280;37380;45.186;9.792;2022-09-23T09:33:03;101448.66;;;21.12;55.78
51297;BME280;37380;45.186;9.792;2022-09-23T09:36:00;101562.75;;;20.85;57.41
51297;BME280;37380;45.186;9.792;2022-09-23T09:39:03;101498.41;;;21.65;55.24
51297;BME280;37380;45.186;9.792;2022-09-23T09:42:04;101543.56;;;21.45;52.92
51297;BME280;37380;45.186;9.792;2022-09-23T09:44:48;101383.94;;;20.96;52.39
51297;BME280;37380;45.186;9.792;2022-09-23T09:49:50;101541.00;;;22.87;53.18
51297;BME280;37380;45.186;9.792;2022-09-23T09:52:24;101498.44;;;22.39;56.11
51297;BME280;37380;45.186;9.792;2022-09-23T09:55:15;101501.72;;;23.35;46.81
51297;BME280;37380;45.186;9.792;2022-09-23T09:57:56;101546.75;;;23.93;46.93
51297;BME280;37380;45.186;9.792;2022-09-23T10:00:58;101465.19;;;23.44;48.01
51297;BME280;37380;45.186;9.792;2022-09-23T10:04:01;101536.97;;;23.92;44.16
51297;BME280;37380;45.186;9.792;2022-09-23T10:07:12;101492.41;;;24.02;43.33
51297;BME280;37380;45.186;9.792;2022-09-23T10:10:22;101508.66;;;23.63;44.75
51297;BME280;37380;45.186;9.792;2022-09-23T10:13:24;101457.25;;;23.38;41.65
51297;BME280;37380;45.186;9.792;2022-09-23T10:16:18;101480.72;;;22.46;45.46
51297;BME280;37380;45.186;9.792;2022-09-23T10:21:14;101519.38;;;23.57;42.91
51297;BME280;37380;45.186;9.792;2022-09-23T10:23:48;101446.38;;;23.72;43.28
51297;BME280;37380;45.186;9.792;2022-09-23T10:26:30;101461.47;;;23.78;42.22
51297;BME280;37380;45.186;9.792;2022-09-23T10:29:03;101512.53;;;24.41;40.64
51297;BME280;37380;45.186;9.792;2022-09-23T10:31:45;101419.13;;;23.22;41.05
51297;BME280;37380;45.186;9.792;2022-09-23T10:34:25;101504.13;;;23.81;44.74
51297;BME280;37380;45.186;9.792;2022-09-23T10:37:33;101492.66;;;23.63;44.45
51297;BME280;37380;45.186;9.792;2022-09-23T10:40:12;101516.09;;;24.43;41.70
51297;BME280;37380;45.186;9.792;2022-09-23T10:45:48;101477.78;;;24.47;42.84
51297;BME280;37380;45.186;9.792;2022-09-23T10:48:52;101511.03;;;24.09;42.61
51297;BME280;37380;45.186;9.792;2022-09-23T10:51:43;101493.75;;;23.24;39.89
51297;BME280;37380;45.186;9.792;2022-09-23T11:00:03;101487.69;;;22.93;44.66
51297;BME280;37380;45.186;9.792;2022-09-23T11:06:53;101486.59;;;23.40;39.01
51297;BME280;37380;45.186;9.792;2022-09-23T11:27:41;101466.97;;;23.47;46.17
51297;BME280;37380;45.186;9.792;2022-09-23T11:30:20;101471.63;;;24.34;42.91
51297;BME280;37380;45.186;9.792;2022-09-23T11:35:58;101456.16;;;23.70;41.98
51297;BME280;37380;45.186;9.792;2022-09-23T11:38:36;101414.84;;;22.88;39.64
51297;BME280;37380;45.186;9.792;2022-09-23T11:41:22;101442.41;;;22.80;41.74
51297;BME280;37380;45.186;9.792;2022-09-23T11:44:05;101422.81;;;22.97;41.48
51297;BME280;37380;45.186;9.792;2022-09-23T11:46:40;101436.03;;;23.20;39.55
51297;BME280;37380;45.186;9.792;2022-09-23T11:49:19;101431.47;;;23.42;41.01
51297;BME280;37380;45.186;9.792;2022-09-23T11:57:02;101405.06;;;24.17;40.74
51297;BME280;37380;45.186;9.792;2022-09-23T12:00:00;101400.84;;;23.92;38.80
51297;BME280;37380;45.186;9.792;2022-09-23T12:05:47;101399.50;;;23.39;39.84
51297;BME280;37380;45.186;9.792;2022-09-23T12:08:54;101383.19;;;23.77;39.38
51297;BME280;37380;45.186;9.792;2022-09-23T12:11:58;101375.41;;;23.46;39.04
51297;BME280;37380;45.186;9.792;2022-09-23T12:15:03;101352.69;;;22.82;39.90
51297;BME280;37380;45.186;9.792;2022-09-23T12:27:08;101384.84;;;22.41;38.98
51297;BME280;37380;45.186;9.792;2022-09-23T12:29:39;101379.63;;;21.44;40.32
51297;BME280;37380;45.186;9.792;2022-09-23T12:32:16;101360.06;;;22.18;40.37
51297;BME280;37380;45.186;9.792;2022-09-23T12:34:49;101309.56;;;21.75;39.74
51297;BME280;37380;45.186;9.792;2022-09-23T12:37:32;101371.31;;;23.01;40.68
51297;BME280;37380;45.186;9.792;2022-09-23T12:40:36;101291.47;;;22.72;42.37
51297;BME280;37380;45.186;9.792;2022-09-23T12:43:30;101288.97;;;22.46;39.00
51297;BME280;37380;45.186;9.792;2022-09-23T12:46:25;101364.97;;;23.14;39.04
51297;BME280;37380;45.186;9.792;2022-09-23T12:54:50;101362.41;;;22.97;41.29
51297;BME280;37380;45.186;9.792;2022-09-23T12:57:50;101361.16;;;23.50;41.61
51297;BME280;37380;45.186;9.792;2022-09-23T13:01:28;101348.03;;;23.24;42.74
51297;BME280;37380;45.186;9.792;2022-09-23T13:04:01;101255.75;;;23.08;44.84
51297;BME280;37380;45.186;9.792;2022-09-23T13:07:18;101295.09;;;22.60;39.15
51297;BME280;37380;45.186;9.792;2022-09-23T13:10:03;101331.47;;;22.66;38.16
51297;BME280;37380;45.186;9.792;2022-09-23T13:12:59;101326.88;;;22.97;40.24
51297;BME280;37380;45.186;9.792;2022-09-23T13:15:32;101279.16;;;22.55;39.50
51297;BME280;37380;45.186;9.792;2022-09-23T13:27:16;101316.38;;;22.68;39.60
51297;BME280;37380;45.186;9.792;2022-09-23T13:32:33;101319.44;;;23.40;38.76
51297;BME280;37380;45.186;9.792;2022-09-23T13:35:04;101317.78;;;23.28;38.02
51297;BME280;37380;45.186;9.792;2022-09-23T13:37:40;101300.94;;;23.22;39.19
51297;BME280;37380;45.186;9.792;2022-09-23T13:40:22;101252.09;;;23.18;37.60
51297;BME280;37380;45.186;9.792;2022-09-23T13:43:02;101299.69;;;22.29;39.69
51297;BME280;37380;45.186;9.792;2022-09-23T13:45:38;101262.53;;;21.93;40.33
51297;BME280;37380;45.186;9.792;2022-09-23T13:48:36;101236.88;;;21.73;40.24
51297;BME280;37380;45.186;9.792;2022-09-23T13:51:13;101288.25;;;21.91;40.29
51297;BME280;37380;45.186;9.792;2022-09-23T13:54:45;101232.50;;;21.52;40.36
51297;BME280;37380;45.186;9.792;2022-09-23T13:58:11;101298.63;;;22.67;40.43
51297;BME280;37380;45.186;9.792;2022-09-23T14:01:33;101290.75;;;22.47;39.48
51297;BME280;37380;45.186;9.792;2022-09-23T14:04:28;101264.34;;;21.78;40.09
51297;BME280;37380;45.186;9.792;2022-09-23T14:06:55;101258.03;;;22.23;40.68
51297;BME280;37380;45.186;9.792;2022-09-23T14:09:24;101278.28;;;22.52;41.71
51297;BME280;37380;45.186;9.792;2022-09-23T14:11:54;101270.34;;;22.46;39.46
51297;BME280;37380;45.186;9.792;2022-09-23T14:14:30;101267.59;;;22.59;38.66
51297;BME280;37380;45.186;9.792;2022-09-23T14:17:24;101230.41;;;22.41;39.14
51297;BME280;37380;45.186;9.792;2022-09-23T14:19:58;101201.50;;;21.32;40.70
51297;BME280;37380;45.186;9.792;2022-09-23T14:23:06;101234.22;;;21.69;41.07
51297;BME280;37380;45.186;9.792;2022-09-23T14:25:35;101252.88;;;21.59;41.22
51297;BME280;37380;45.186;9.792;2022-09-23T14:28:04;101201.41;;;21.75;41.34
51297;BME280;37380;45.186;9.792;2022-09-23T14:30:39;101254.47;;;22.15;40.37
51297;BME280;37380;45.186;9.792;2022-09-23T14:33:41;101184.66;;;21.45;41.14
51297;BME280;37380;45.186;9.792;2022-09-23T14:36:36;101208.56;;;21.48;42.16
51297;BME280;37380;45.186;9.792;2022-09-23T14:39:29;101259.91;;;21.90;41.44
51297;BME280;37380;45.186;9.792;2022-09-23T14:41:56;101200.53;;;21.73;40.95
51297;BME280;37380;45.186;9.792;2022-09-23T14:44:23;101233.25;;;22.00;41.88
51297;BME280;37380;45.186;9.792;2022-09-23T14:46:54;101247.41;;;22.02;41.72
51297;BME280;37380;45.186;9.792;2022-09-23T14:49:23;101180.97;;;21.86;41.68
51297;BME280;37380;45.186;9.792;2022-09-23T14:51:58;101222.53;;;22.15;42.96
51297;BME280;37380;45.186;9.792;2022-09-23T14:55:00;101200.50;;;21.82;41.27
51297;BME280;37380;45.186;9.792;2022-09-23T14:58:14;101158.03;;;21.56;41.13
51297;BME280;37380;45.186;9.792;2022-09-23T15:04:31;101158.97;;;21.28;41.46
51297;BME280;37380;45.186;9.792;2022-09-23T15:07:15;101150.16;;;21.18;41.96
51297;BME280;37380;45.186;9.792;2022-09-23T15:09:51;101182.91;;;21.38;41.51
51297;BME280;37380;45.186;9.792;2022-09-23T15:12:45;101173.13;;;21.31;41.80
51297;BME280;37380;45.186;9.792;2022-09-23T15:15:15;101238.53;;;22.06;41.26
51297;BME280;37380;45.186;9.792;2022-09-23T15:17:43;101210.31;;;21.57;41.44
51297;BME280;37380;45.186;9.792;2022-09-23T15:20:22;101219.13;;;21.82;41.16
51297;BME280;37380;45.186;9.792;2022-09-23T15:23:45;101219.06;;;21.93;41.27
51297;BME280;37380;45.186;9.792;2022-09-23T15:26:15;101220.78;;;22.17;41.35
51297;BME280;37380;45.186;9.792;2022-09-23T15:28:44;101217.28;;;22.03;40.93
51297;BME280;37380;45.186;9.792;2022-09-23T15:31:16;101141.13;;;21.77;40.42
51297;BME280;37380;45.186;9.792;2022-09-23T15:33:45;101222.50;;;22.24;40.96
51297;BME280;37380;45.186;9.792;2022-09-23T15:36:22;101187.22;;;21.79;42.50
51297;BME280;37380;45.186;9.792;2022-09-23T15:39:23;101185.38;;;21.93;40.98
51297;BME280;37380;45.186;9.792;2022-09-23T15:42:18;101210.22;;;21.92;42.31
51297;BME280;37380;45.186;9.792;2022-09-23T15:44:45;101104.00;;;21.34;41.68
51297;BME280;37380;45.186;9.792;2022-09-23T15:47:14;101194.38;;;21.65;41.72
51297;BME280;37380;45.186;9.792;2022-09-23T15:49:44;101199.72;;;21.56;41.94
51297;BME280;37380;45.186;9.792;2022-09-23T15:52:18;101166.06;;;21.36;42.62
51297;BME280;37380;45.186;9.792;2022-09-23T15:55:19;101189.03;;;21.68;42.14
51297;BME280;37380;45.186;9.792;2022-09-23T15:58:21;101183.72;;;21.65;42.67